USCGC Healy — NEPP — position and weather

sailwx.info

Track history (hours):
 
Tides and Currents Weather Stations Pressure Air Temp Water Temp Dewpoint Dewpoint Depression Visibility Wind Speed Wind Dir Waves Ship Positions

Oceanographic research ship USCGC Healy (USA)

Detailed information on ship capabilities available from University of Delaware's Ocean Information Center and ARCUS's ALIAS (Arctic Logistics Information and Support) project.

Last reported at 2015-Jun-29 15:00 UTC. Time now 2015-Jul-01 06:32 UTC.
Position N 57°36' W 151°54'.

Type: Dredging. MMSI: 303902000.

Wind from 090 at 10 knots

Barometer 1007.8 mb
Air temperature 13.3 ° C
Visibility: greater than 5.4 NM
Dewpoint 7.9 ° C
Water temperature 9.4 ° C

Date/timePositionNaut miles runAvg speedWind from/ knotsBaromVisibWave heightAir tempDewpointWater temp
2015-Jun-29 15:00N 57°36' W 151°54'14 2.3 090 / 101007.8 5.4 13.3 7.9 9.4
2015-Jun-29 09:00N 57°24' W 151°42'26 3.2 100 / 71008.6 5.4 1.013.3 6.410.0
2015-Jun-29 01:00N 57°24' W 150°54'15 3.9 050 / 91008.1 5.4 0.514.4 7.811.7
2015-Jun-28 21:00N 57°12' W 150°36'8227.4 060 / 51008.8 5.4 15.0 7.112.1
2015-Jun-28 18:00N 56°00' W 149°24'11412.7 130 / 991009.0 5.4 1.015.0 9.212.0
2015-Jun-28 09:00N 56°00' W 146°00'3812.7 180 / 131011.5 5.4 2.013.9 5.712.2
2015-Jun-28 06:00N 55°42' W 145°00'8614.3 180 / 131011.8 5.4 13.9 8.311.1
2015-Jun-28 00:00N 55°00' W 142°48'1515.0 150 / 131014.6 5.4 2.017.2 7.311.8
2015-Jun-27 23:00N 54°54' W 142°24'11814.8 280 / 151014.3 5.4 1.017.2 8.711.1
2015-Jun-27 15:00N 53°48' W 139°36'15216.8 170 / 111015.8 5.4 2.015.6 9.0
2015-Jun-27 06:00N 52°06' W 136°30'3712.4 150 / 101018.9 5.4 1.016.7 5.013.3
2015-Jun-27 03:00N 52°12' W 135°30'12413.8 170 / 91020.1 5.4 0.516.710.313.3
2015-Jun-26 18:00N 51°18' W 132°30'4816.0 160 / 71023.0 5.4 1.021.111.215.0
2015-Jun-26 15:00N 50°54' W 131°24'87 7.2 290 / 21023.4 5.4 1.018.910.613.9
2015-Jun-26 03:00N 49°36' W 130°24'3913.1 280 / 81023.0 5.4 18.910.615.0
2015-Jun-26 00:00N 49°12' W 129°36'4414.5 250 / 91021.0 5.4 1.519.410.215.0
2015-Jun-25 21:00N 48°42' W 128°48'3010.0 250 / 121021.2 5.4 1.020.611.714.4
2015-Jun-25 18:00N 48°24' W 128°12'3712.2 240 / 111020.2 5.4 0.521.113.515.0
2015-Jun-25 15:00N 48°06' W 127°24'6912.3 160 / 151019.3 1.1 1.019.412.714.8
2015-Jun-25 09:24N 48°24' W 125°44'1213.5
2015-Jun-25 08:33N 48°30' W 125°30'1413.7
2015-Jun-25 07:34N 48°31' W 125°09'1212.3
2015-Jun-25 06:34N 48°31' W 124°51'1526.9
2015-Jun-25 06:00N 48°24' W 124°30'3 7.3 230 / 81019.1 5.4 18.3 8.711.9
2015-Jun-25 05:33N 48°27' W 124°31'1413.6
2015-Jun-25 04:33N 48°22' W 124°12'1313.0
2015-Jun-25 03:33N 48°17' W 123°54'916.4
2015-Jun-25 03:00N 48°12' W 123°42'614.4 290 / 131018.6 5.4 16.710.311.0
2015-Jun-25 02:33N 48°15' W 123°34'1313.2
2015-Jun-25 01:33N 48°13' W 123°14'9 9.4
2015-Jun-25 00:32N 48°15' W 122°60'2 2.2
2015-Jun-24 23:33N 48°14' W 122°57'2 1.6
2015-Jun-24 22:33N 48°15' W 122°59'5 4.8
2015-Jun-24 21:33N 48°12' W 122°53'1413.4
2015-Jun-24 20:30N 48°02' W 122°38'1213.3
2015-Jun-24 19:33N 47°52' W 122°28'1413.7
2015-Jun-24 18:33N 47°38' W 122°27'5 4.9
2015-Jun-24 17:31N 47°35' W 122°21'0 0.0
2015-Jun-24 16:31N 47°35' W 122°21'0 0.0
2015-Jun-24 15:28N 47°35' W 122°21'0 0.0
2015-Jun-24 14:31N 47°35' W 122°21'0 0.0
2015-Jun-24 13:31N 47°35' W 122°21'0 0.0
2015-Jun-24 12:31N 47°35' W 122°21'0 0.0
2015-Jun-24 11:28N 47°35' W 122°21'0 0.0
2015-Jun-24 10:31N 47°35' W 122°21'0 0.0
2015-Jun-24 09:31N 47°35' W 122°21'0 0.0
2015-Jun-24 08:31N 47°35' W 122°21'0 0.0
2015-Jun-24 07:31N 47°35' W 122°21'0 0.0
2015-Jun-24 06:28N 47°35' W 122°21'0 0.0
2015-Jun-24 05:28N 47°35' W 122°21'0 0.0
2015-Jun-24 04:31N 47°35' W 122°21'0 0.0
2015-Jun-24 03:22N 47°35' W 122°21'0 0.0
2015-Jun-24 02:31N 47°35' W 122°21'0 0.0
2015-Jun-24 01:31N 47°35' W 122°21'0 0.0
2015-Jun-24 00:31N 47°35' W 122°21'0 0.0
2015-Jun-23 23:28N 47°35' W 122°21'0 0.0
2015-Jun-23 22:31N 47°35' W 122°21'0 0.0
2015-Jun-23 21:31N 47°35' W 122°21'0 0.0
2015-Jun-23 20:28N 47°35' W 122°21'0 0.0
2015-Jun-23 19:28N 47°35' W 122°21'0 0.0
2015-Jun-23 18:52N 47°35' W 122°21'0 0.0
2015-Jun-22 19:31N 47°35' W 122°21'0 0.0
2015-Jun-22 18:16N 47°35' W 122°21'0 0.0
2015-Jun-22 17:28N 47°35' W 122°21'0 0.0
2015-Jun-22 16:31N 47°35' W 122°21'0 0.0
2015-Jun-22 15:28N 47°35' W 122°21'0 0.0
2015-Jun-22 14:31N 47°35' W 122°21'0 0.0
2015-Jun-22 13:28N 47°35' W 122°21'0 0.0
2015-Jun-22 12:28N 47°35' W 122°21'0 0.0
2015-Jun-22 11:28N 47°35' W 122°21'0 0.0
2015-Jun-22 10:28N 47°35' W 122°21'0 0.0
2015-Jun-22 09:28N 47°35' W 122°21'0 0.0
2015-Jun-22 08:28N 47°35' W 122°21'0 0.0
2015-Jun-22 06:25N 47°35' W 122°21'0 0.0
2015-Jun-22 05:31N 47°35' W 122°21'0 0.0
2015-Jun-22 03:25N 47°35' W 122°21'0 0.0
2015-Jun-22 02:31N 47°35' W 122°21'0 0.0
2015-Jun-22 01:25N 47°35' W 122°21'0 0.0
2015-Jun-22 00:28N 47°35' W 122°21'0 0.0
2015-Jun-21 23:10N 47°35' W 122°21'0 0.0
2015-Jun-21 22:28N 47°35' W 122°21'0 0.0
2015-Jun-21 21:31N 47°35' W 122°21'0 0.0
2015-Jun-21 20:28N 47°35' W 122°21'0 0.0
2015-Jun-21 19:28N 47°35' W 122°21'0 0.0
2015-Jun-21 16:07N 47°35' W 122°21'0 0.0
2015-Jun-21 15:31N 47°35' W 122°21'0 0.0
2015-Jun-21 13:31N 47°35' W 122°21'0 0.0
2015-Jun-21 12:28N 47°35' W 122°21'0 0.0
2015-Jun-21 11:28N 47°35' W 122°21'0 0.0
2015-Jun-21 10:28N 47°35' W 122°21'0 0.0
2015-Jun-21 09:28N 47°35' W 122°21'0 0.0
2015-Jun-21 08:28N 47°35' W 122°21'0 0.0
2015-Jun-21 07:25N 47°35' W 122°21'0 0.0
2015-Jun-21 06:31N 47°35' W 122°21'0 0.0
2015-Jun-21 05:31N 47°35' W 122°21'0 0.0
2015-Jun-21 04:31N 47°35' W 122°21'0 0.0
2015-Jun-21 03:31N 47°35' W 122°21'0 0.0
2015-Jun-21 02:31N 47°35' W 122°21'0 0.0
2015-Jun-21 01:31N 47°35' W 122°21'0 0.0
2015-Jun-21 00:19N 47°35' W 122°21'0 0.0
2015-Jun-20 23:22N 47°35' W 122°21'0 0.0
2015-Jun-20 22:25N 47°35' W 122°21'0 0.0
2015-Jun-20 21:31N 47°35' W 122°21'0 0.0
2015-Jun-20 20:31N 47°35' W 122°21'0 0.0
2015-Jun-20 19:28N 47°35' W 122°21'0 0.0
2015-Jun-20 16:04N 47°35' W 122°21'0 0.0
2015-Jun-20 15:13N 47°35' W 122°21'0 0.0
2015-Jun-20 14:31N 47°35' W 122°21'0 0.0
2015-Jun-20 13:31N 47°35' W 122°21'0 0.0
2015-Jun-20 12:31N 47°35' W 122°21'0 0.0
2015-Jun-20 11:31N 47°35' W 122°21'0 0.0
2015-Jun-20 10:31N 47°35' W 122°21'0 0.0
2015-Jun-20 09:31N 47°35' W 122°21'0 0.0
2015-Jun-20 08:31N 47°35' W 122°21'0 0.0
2015-Jun-20 07:31N 47°35' W 122°21'0 0.0
2015-Jun-20 06:31N 47°35' W 122°21'0 0.0
2015-Jun-20 05:31N 47°35' W 122°21'0 0.0
2015-Jun-20 04:31N 47°35' W 122°21'0 0.0
2015-Jun-20 03:31N 47°35' W 122°21'0 0.0
2015-Jun-20 02:31N 47°35' W 122°21'0 0.0
2015-Jun-20 01:31N 47°35' W 122°21'0 0.0
2015-Jun-20 00:31N 47°35' W 122°21'0 0.0
2015-Jun-19 23:28N 47°35' W 122°21'0 0.0
2015-Jun-19 22:28N 47°35' W 122°21'0 0.0
2015-Jun-19 21:31N 47°35' W 122°21'0 0.0
2015-Jun-19 20:31N 47°35' W 122°21'0 0.0
2015-Jun-19 19:31N 47°35' W 122°21'0 0.0
2015-Jun-19 18:31N 47°35' W 122°21'0 0.0
2015-Jun-19 17:31N 47°35' W 122°21'0 0.0
2015-Jun-19 16:31N 47°35' W 122°21'0 0.0
2015-Jun-19 15:25N 47°35' W 122°21'  
Track history (hours):
 
Tides and Currents Weather Stations Pressure Air Temp Water Temp Dewpoint Dewpoint Depression Visibility Wind Speed Wind Dir Waves Ship Positions

Oceanographic research ship USCGC Healy (USA)

Detailed information on ship capabilities available from University of Delaware's Ocean Information Center and ARCUS's ALIAS (Arctic Logistics Information and Support) project.

Last reported at 2015-Jun-29 15:00 UTC. Time now 2015-Jul-01 06:32 UTC.
Position N 57°36' W 151°54'.

Type: Dredging. MMSI: 303902000.

Wind from 090 at 10 knots

Barometer 1007.8 mb
Air temperature 13.3 ° C
Visibility: greater than 5.4 NM
Dewpoint 7.9 ° C
Water temperature 9.4 ° C

Date/timePositionNaut miles runAvg speedWind from/ knotsBaromVisibWave heightAir tempDewpointWater temp
2015-Jun-29 15:00N 57°36' W 151°54'14 2.3 090 / 101007.8 5.4 13.3 7.9 9.4
2015-Jun-29 09:00N 57°24' W 151°42'26 3.2 100 / 71008.6 5.4 1.013.3 6.410.0
2015-Jun-29 01:00N 57°24' W 150°54'15 3.9 050 / 91008.1 5.4 0.514.4 7.811.7
2015-Jun-28 21:00N 57°12' W 150°36'8227.4 060 / 51008.8 5.4 15.0 7.112.1
2015-Jun-28 18:00N 56°00' W 149°24'11412.7 130 / 991009.0 5.4 1.015.0 9.212.0
2015-Jun-28 09:00N 56°00' W 146°00'3812.7 180 / 131011.5 5.4 2.013.9 5.712.2
2015-Jun-28 06:00N 55°42' W 145°00'8614.3 180 / 131011.8 5.4 13.9 8.311.1
2015-Jun-28 00:00N 55°00' W 142°48'1515.0 150 / 131014.6 5.4 2.017.2 7.311.8
2015-Jun-27 23:00N 54°54' W 142°24'11814.8 280 / 151014.3 5.4 1.017.2 8.711.1
2015-Jun-27 15:00N 53°48' W 139°36'15216.8 170 / 111015.8 5.4 2.015.6 9.0
2015-Jun-27 06:00N 52°06' W 136°30'3712.4 150 / 101018.9 5.4 1.016.7 5.013.3
2015-Jun-27 03:00N 52°12' W 135°30'12413.8 170 / 91020.1 5.4 0.516.710.313.3
2015-Jun-26 18:00N 51°18' W 132°30'4816.0 160 / 71023.0 5.4 1.021.111.215.0
2015-Jun-26 15:00N 50°54' W 131°24'87 7.2 290 / 21023.4 5.4 1.018.910.613.9
2015-Jun-26 03:00N 49°36' W 130°24'3913.1 280 / 81023.0 5.4 18.910.615.0
2015-Jun-26 00:00N 49°12' W 129°36'4414.5 250 / 91021.0 5.4 1.519.410.215.0
2015-Jun-25 21:00N 48°42' W 128°48'3010.0 250 / 121021.2 5.4 1.020.611.714.4
2015-Jun-25 18:00N 48°24' W 128°12'3712.2 240 / 111020.2 5.4 0.521.113.515.0
2015-Jun-25 15:00N 48°06' W 127°24'6912.3 160 / 151019.3 1.1 1.019.412.714.8
2015-Jun-25 09:24N 48°24' W 125°44'1213.5
2015-Jun-25 08:33N 48°30' W 125°30'1413.7
2015-Jun-25 07:34N 48°31' W 125°09'1212.3
2015-Jun-25 06:34N 48°31' W 124°51'1526.9
2015-Jun-25 06:00N 48°24' W 124°30'3 7.3 230 / 81019.1 5.4 18.3 8.711.9
2015-Jun-25 05:33N 48°27' W 124°31'1413.6
2015-Jun-25 04:33N 48°22' W 124°12'1313.0
2015-Jun-25 03:33N 48°17' W 123°54'916.4
2015-Jun-25 03:00N 48°12' W 123°42'614.4 290 / 131018.6 5.4 16.710.311.0
2015-Jun-25 02:33N 48°15' W 123°34'1313.2
2015-Jun-25 01:33N 48°13' W 123°14'9 9.4
2015-Jun-25 00:32N 48°15' W 122°60'2 2.2
2015-Jun-24 23:33N 48°14' W 122°57'2 1.6
2015-Jun-24 22:33N 48°15' W 122°59'5 4.8
2015-Jun-24 21:33N 48°12' W 122°53'1413.4
2015-Jun-24 20:30N 48°02' W 122°38'1213.3
2015-Jun-24 19:33N 47°52' W 122°28'1413.7
2015-Jun-24 18:33N 47°38' W 122°27'5 4.9
2015-Jun-24 17:31N 47°35' W 122°21'0 0.0
2015-Jun-24 16:31N 47°35' W 122°21'0 0.0
2015-Jun-24 15:28N 47°35' W 122°21'0 0.0
2015-Jun-24 14:31N 47°35' W 122°21'0 0.0
2015-Jun-24 13:31N 47°35' W 122°21'0 0.0
2015-Jun-24 12:31N 47°35' W 122°21'0 0.0
2015-Jun-24 11:28N 47°35' W 122°21'0 0.0
2015-Jun-24 10:31N 47°35' W 122°21'0 0.0
2015-Jun-24 09:31N 47°35' W 122°21'0 0.0
2015-Jun-24 08:31N 47°35' W 122°21'0 0.0
2015-Jun-24 07:31N 47°35' W 122°21'0 0.0
2015-Jun-24 06:28N 47°35' W 122°21'0 0.0
2015-Jun-24 05:28N 47°35' W 122°21'0 0.0
2015-Jun-24 04:31N 47°35' W 122°21'0 0.0
2015-Jun-24 03:22N 47°35' W 122°21'0 0.0
2015-Jun-24 02:31N 47°35' W 122°21'0 0.0
2015-Jun-24 01:31N 47°35' W 122°21'0 0.0
2015-Jun-24 00:31N 47°35' W 122°21'0 0.0
2015-Jun-23 23:28N 47°35' W 122°21'0 0.0
2015-Jun-23 22:31N 47°35' W 122°21'0 0.0
2015-Jun-23 21:31N 47°35' W 122°21'0 0.0
2015-Jun-23 20:28N 47°35' W 122°21'0 0.0
2015-Jun-23 19:28N 47°35' W 122°21'0 0.0
2015-Jun-23 18:52N 47°35' W 122°21'0 0.0
2015-Jun-22 19:31N 47°35' W 122°21'0 0.0
2015-Jun-22 18:16N 47°35' W 122°21'0 0.0
2015-Jun-22 17:28N 47°35' W 122°21'0 0.0
2015-Jun-22 16:31N 47°35' W 122°21'0 0.0
2015-Jun-22 15:28N 47°35' W 122°21'0 0.0
2015-Jun-22 14:31N 47°35' W 122°21'0 0.0
2015-Jun-22 13:28N 47°35' W 122°21'0 0.0
2015-Jun-22 12:28N 47°35' W 122°21'0 0.0
2015-Jun-22 11:28N 47°35' W 122°21'0 0.0
2015-Jun-22 10:28N 47°35' W 122°21'0 0.0
2015-Jun-22 09:28N 47°35' W 122°21'0 0.0
2015-Jun-22 08:28N 47°35' W 122°21'0 0.0
2015-Jun-22 06:25N 47°35' W 122°21'0 0.0
2015-Jun-22 05:31N 47°35' W 122°21'0 0.0
2015-Jun-22 03:25N 47°35' W 122°21'0 0.0
2015-Jun-22 02:31N 47°35' W 122°21'0 0.0
2015-Jun-22 01:25N 47°35' W 122°21'0 0.0
2015-Jun-22 00:28N 47°35' W 122°21'0 0.0
2015-Jun-21 23:10N 47°35' W 122°21'0 0.0
2015-Jun-21 22:28N 47°35' W 122°21'0 0.0
2015-Jun-21 21:31N 47°35' W 122°21'0 0.0
2015-Jun-21 20:28N 47°35' W 122°21'0 0.0
2015-Jun-21 19:28N 47°35' W 122°21'0 0.0
2015-Jun-21 16:07N 47°35' W 122°21'0 0.0
2015-Jun-21 15:31N 47°35' W 122°21'0 0.0
2015-Jun-21 13:31N 47°35' W 122°21'0 0.0
2015-Jun-21 12:28N 47°35' W 122°21'0 0.0
2015-Jun-21 11:28N 47°35' W 122°21'0 0.0
2015-Jun-21 10:28N 47°35' W 122°21'0 0.0
2015-Jun-21 09:28N 47°35' W 122°21'0 0.0
2015-Jun-21 08:28N 47°35' W 122°21'0 0.0
2015-Jun-21 07:25N 47°35' W 122°21'0 0.0
2015-Jun-21 06:31N 47°35' W 122°21'0 0.0
2015-Jun-21 05:31N 47°35' W 122°21'0 0.0
2015-Jun-21 04:31N 47°35' W 122°21'0 0.0
2015-Jun-21 03:31N 47°35' W 122°21'0 0.0
2015-Jun-21 02:31N 47°35' W 122°21'0 0.0
2015-Jun-21 01:31N 47°35' W 122°21'0 0.0
2015-Jun-21 00:19N 47°35' W 122°21'0 0.0
2015-Jun-20 23:22N 47°35' W 122°21'0 0.0
2015-Jun-20 22:25N 47°35' W 122°21'0 0.0
2015-Jun-20 21:31N 47°35' W 122°21'0 0.0
2015-Jun-20 20:31N 47°35' W 122°21'0 0.0
2015-Jun-20 19:28N 47°35' W 122°21'0 0.0
2015-Jun-20 16:04N 47°35' W 122°21'0 0.0
2015-Jun-20 15:13N 47°35' W 122°21'0 0.0
2015-Jun-20 14:31N 47°35' W 122°21'0 0.0
2015-Jun-20 13:31N 47°35' W 122°21'0 0.0
2015-Jun-20 12:31N 47°35' W 122°21'0 0.0
2015-Jun-20 11:31N 47°35' W 122°21'0 0.0
2015-Jun-20 10:31N 47°35' W 122°21'0 0.0
2015-Jun-20 09:31N 47°35' W 122°21'0 0.0
2015-Jun-20 08:31N 47°35' W 122°21'0 0.0
2015-Jun-20 07:31N 47°35' W 122°21'0 0.0
2015-Jun-20 06:31N 47°35' W 122°21'0 0.0
2015-Jun-20 05:31N 47°35' W 122°21'0 0.0
2015-Jun-20 04:31N 47°35' W 122°21'0 0.0
2015-Jun-20 03:31N 47°35' W 122°21'0 0.0
2015-Jun-20 02:31N 47°35' W 122°21'0 0.0
2015-Jun-20 01:31N 47°35' W 122°21'0 0.0
2015-Jun-20 00:31N 47°35' W 122°21'0 0.0
2015-Jun-19 23:28N 47°35' W 122°21'0 0.0
2015-Jun-19 22:28N 47°35' W 122°21'0 0.0
2015-Jun-19 21:31N 47°35' W 122°21'0 0.0
2015-Jun-19 20:31N 47°35' W 122°21'0 0.0
2015-Jun-19 19:31N 47°35' W 122°21'0 0.0
2015-Jun-19 18:31N 47°35' W 122°21'0 0.0
2015-Jun-19 17:31N 47°35' W 122°21'0 0.0
2015-Jun-19 16:31N 47°35' W 122°21'0 0.0
2015-Jun-19 15:25N 47°35' W 122°21'  

Dump ship's entire track history